Terminal Aerodrome Forecast
Issued by NWS Chicago, IL

Home | Current Version | Previous Version | Graphics & Text | Print | Product List | Glossary On
Versions: 1 2 3 4 5 6 7 8 9 10 11 12 13 14 15 16 17 18 19 20 21 22 23 24 25
465
FTUS43 KLOT 260851 AAA
TAFRFD
TAF AMD
KRFD 260851Z 2609/2706 14003KT P6SM SCT070 BKN120
     FM261300 13012KT P6SM BKN100
     FM261700 11012KT 6SM -SHRA VCTS SCT020CB BKN035
     FM262100 11010KT P6SM VCSH SCT010 BKN020
     FM270000 02008KT P6SM SCT020 BKN030=

USA.gov is the U.S. government's official web portal to all federal, state and local government web resources and services.